sensor_id;sensor_type;location;lat;lon;timestamp;pressure;altitude;pressure_sealevel;temperature;humidity
22662;BME280;11497;52.222;21.246;2023-02-26T00:01:42;98932.44;;;1.30;98.60
22662;BME280;11497;52.222;21.246;2023-02-26T00:04:10;98952.09;;;1.34;98.78
22662;BME280;11497;52.222;21.246;2023-02-26T00:06:40;98950.53;;;1.27;97.87
22662;BME280;11497;52.222;21.246;2023-02-26T00:09:24;98951.31;;;1.30;97.44
22662;BME280;11497;52.222;21.246;2023-02-26T00:11:52;98951.06;;;1.44;97.43
22662;BME280;11497;52.222;21.246;2023-02-26T00:14:20;98955.50;;;1.36;96.55
22662;BME280;11497;52.222;21.246;2023-02-26T00:17:13;98966.59;;;1.40;96.37
22662;BME280;11497;52.222;21.246;2023-02-26T00:19:50;98966.06;;;1.24;96.41
22662;BME280;11497;52.222;21.246;2023-02-26T00:22:18;98971.28;;;1.21;96.58
22662;BME280;11497;52.222;21.246;2023-02-26T00:24:47;98982.25;;;1.30;95.84
22662;BME280;11497;52.222;21.246;2023-02-26T00:27:14;98976.44;;;1.21;95.37
22662;BME280;11497;52.222;21.246;2023-02-26T00:29:43;98986.00;;;1.13;95.18
22662;BME280;11497;52.222;21.246;2023-02-26T00:32:12;98954.59;;;0.92;95.15
22662;BME280;11497;52.222;21.246;2023-02-26T00:34:41;98980.25;;;0.98;94.87
22662;BME280;11497;52.222;21.246;2023-02-26T00:37:36;98983.59;;;1.04;94.61
22662;BME280;11497;52.222;21.246;2023-02-26T00:42:42;98998.31;;;0.95;93.67
22662;BME280;11497;52.222;21.246;2023-02-26T00:45:11;99002.56;;;0.99;93.51
22662;BME280;11497;52.222;21.246;2023-02-26T00:48:10;98999.06;;;1.04;93.27
22662;BME280;11497;52.222;21.246;2023-02-26T00:51:22;99012.91;;;0.96;93.09
22662;BME280;11497;52.222;21.246;2023-02-26T00:56:28;99019.97;;;0.85;93.63
22662;BME280;11497;52.222;21.246;2023-02-26T00:58:56;99018.31;;;0.81;93.65
22662;BME280;11497;52.222;21.246;2023-02-26T01:01:24;99026.84;;;0.86;93.91
22662;BME280;11497;52.222;21.246;2023-02-26T01:03:52;99027.63;;;0.88;93.98
22662;BME280;11497;52.222;21.246;2023-02-26T01:06:21;99037.44;;;0.65;94.04
22662;BME280;11497;52.222;21.246;2023-02-26T01:09:04;99035.72;;;0.67;94.80
22662;BME280;11497;52.222;21.246;2023-02-26T01:11:36;99035.78;;;0.61;95.83
22662;BME280;11497;52.222;21.246;2023-02-26T01:14:05;99053.78;;;0.62;96.82
22662;BME280;11497;52.222;21.246;2023-02-26T01:17:01;99045.91;;;0.73;97.45
22662;BME280;11497;52.222;21.246;2023-02-26T01:19:53;99044.31;;;0.66;97.43
22662;BME280;11497;52.222;21.246;2023-02-26T01:25:06;99057.16;;;0.68;97.91
22662;BME280;11497;52.222;21.246;2023-02-26T01:27:35;99057.13;;;0.69;97.99
22662;BME280;11497;52.222;21.246;2023-02-26T01:30:04;99068.25;;;0.71;98.12
22662;BME280;11497;52.222;21.246;2023-02-26T01:32:43;99059.63;;;0.75;97.76
22662;BME280;11497;52.222;21.246;2023-02-26T01:38:03;99082.16;;;0.58;96.47
22662;BME280;11497;52.222;21.246;2023-02-26T01:41:06;99089.88;;;0.59;95.75
22662;BME280;11497;52.222;21.246;2023-02-26T01:49:18;99109.63;;;0.59;94.36
22662;BME280;11497;52.222;21.246;2023-02-26T01:54:20;99123.25;;;0.67;93.90
22662;BME280;11497;52.222;21.246;2023-02-26T01:56:55;99126.56;;;0.75;93.36
22662;BME280;11497;52.222;21.246;2023-02-26T01:59:25;99128.31;;;0.73;92.79
22662;BME280;11497;52.222;21.246;2023-02-26T02:01:56;99135.97;;;0.79;92.27
22662;BME280;11497;52.222;21.246;2023-02-26T02:04:25;99142.06;;;0.72;91.97
22662;BME280;11497;52.222;21.246;2023-02-26T02:06:54;99144.59;;;0.75;91.62
22662;BME280;11497;52.222;21.246;2023-02-26T02:09:22;99148.13;;;0.66;91.14
22662;BME280;11497;52.222;21.246;2023-02-26T02:12:12;99162.69;;;0.69;91.34
22662;BME280;11497;52.222;21.246;2023-02-26T02:17:39;99169.69;;;0.58;90.76
22662;BME280;11497;52.222;21.246;2023-02-26T02:20:51;99176.41;;;0.71;90.49
22662;BME280;11497;52.222;21.246;2023-02-26T02:23:31;99179.88;;;0.67;90.67
22662;BME280;11497;52.222;21.246;2023-02-26T02:34:26;99202.19;;;0.68;89.47
22662;BME280;11497;52.222;21.246;2023-02-26T02:37:15;99205.78;;;0.55;89.22
22662;BME280;11497;52.222;21.246;2023-02-26T02:39:52;99202.41;;;0.50;88.82
22662;BME280;11497;52.222;21.246;2023-02-26T02:42:54;99207.59;;;0.47;88.67
22662;BME280;11497;52.222;21.246;2023-02-26T02:45:47;99212.81;;;0.41;89.25
22662;BME280;11497;52.222;21.246;2023-02-26T02:51:12;99221.31;;;0.47;88.14
22662;BME280;11497;52.222;21.246;2023-02-26T02:59:22;99236.69;;;0.53;86.38
22662;BME280;11497;52.222;21.246;2023-02-26T03:01:56;99242.66;;;0.55;86.56
22662;BME280;11497;52.222;21.246;2023-02-26T03:04:26;99250.34;;;0.60;85.92
22662;BME280;11497;52.222;21.246;2023-02-26T03:06:54;99265.69;;;0.69;84.88
22662;BME280;11497;52.222;21.246;2023-02-26T03:09:22;99260.50;;;0.72;84.38
22662;BME280;11497;52.222;21.246;2023-02-26T03:11:50;99270.84;;;0.69;84.23
22662;BME280;11497;52.222;21.246;2023-02-26T03:14:18;99276.03;;;0.66;84.28
22662;BME280;11497;52.222;21.246;2023-02-26T03:17:05;99285.28;;;0.82;84.71
22662;BME280;11497;52.222;21.246;2023-02-26T03:25:06;99298.31;;;0.70;83.94
22662;BME280;11497;52.222;21.246;2023-02-26T03:27:55;99298.41;;;0.58;84.22
22662;BME280;11497;52.222;21.246;2023-02-26T03:30:39;99312.16;;;0.57;84.68
22662;BME280;11497;52.222;21.246;2023-02-26T03:33:31;99313.88;;;0.58;85.13
22662;BME280;11497;52.222;21.246;2023-02-26T03:36:13;99313.00;;;0.60;84.97
22662;BME280;11497;52.222;21.246;2023-02-26T03:39:26;99328.44;;;0.59;85.42
22662;BME280;11497;52.222;21.246;2023-02-26T03:42:07;99326.56;;;0.75;85.67
22662;BME280;11497;52.222;21.246;2023-02-26T03:44:54;99324.81;;;0.80;85.27
22662;BME280;11497;52.222;21.246;2023-02-26T03:47:24;99319.81;;;0.63;85.31
22662;BME280;11497;52.222;21.246;2023-02-26T03:50:19;99342.91;;;0.74;85.71
22662;BME280;11497;52.222;21.246;2023-02-26T03:53:13;99340.34;;;0.71;85.74
22662;BME280;11497;52.222;21.246;2023-02-26T03:56:02;99341.25;;;0.66;85.72
22662;BME280;11497;52.222;21.246;2023-02-26T03:58:36;99343.91;;;0.57;85.62
22662;BME280;11497;52.222;21.246;2023-02-26T04:01:50;99353.31;;;0.60;85.95
22662;BME280;11497;52.222;21.246;2023-02-26T04:07:02;99364.41;;;0.70;85.23
22662;BME280;11497;52.222;21.246;2023-02-26T04:09:30;99372.09;;;0.74;84.77
22662;BME280;11497;52.222;21.246;2023-02-26T04:11:58;99377.25;;;0.73;84.00
22662;BME280;11497;52.222;21.246;2023-02-26T04:14:26;99379.00;;;0.68;83.23
22662;BME280;11497;52.222;21.246;2023-02-26T04:16:54;99391.03;;;0.67;82.32
22662;BME280;11497;52.222;21.246;2023-02-26T04:19:22;99397.03;;;0.66;81.95
22662;BME280;11497;52.222;21.246;2023-02-26T04:21:50;99396.00;;;0.85;81.30
22662;BME280;11497;52.222;21.246;2023-02-26T04:24:18;99396.09;;;0.75;81.16
22662;BME280;11497;52.222;21.246;2023-02-26T04:26:47;99395.84;;;1.00;80.62
22662;BME280;11497;52.222;21.246;2023-02-26T04:29:16;99398.41;;;1.00;80.31
22662;BME280;11497;52.222;21.246;2023-02-26T04:31:44;99399.47;;;0.83;80.04
22662;BME280;11497;52.222;21.246;2023-02-26T04:34:12;99396.13;;;0.73;79.38
22662;BME280;11497;52.222;21.246;2023-02-26T04:36:40;99406.41;;;0.76;79.89
22662;BME280;11497;52.222;21.246;2023-02-26T04:39:08;99411.53;;;0.79;79.59
22662;BME280;11497;52.222;21.246;2023-02-26T04:41:38;99419.06;;;0.94;79.00
22662;BME280;11497;52.222;21.246;2023-02-26T04:44:06;99419.91;;;0.96;78.51
22662;BME280;11497;52.222;21.246;2023-02-26T04:46:36;99427.06;;;0.67;78.54
22662;BME280;11497;52.222;21.246;2023-02-26T04:49:04;99428.72;;;0.76;79.18
22662;BME280;11497;52.222;21.246;2023-02-26T04:51:32;99439.91;;;0.73;78.81
22662;BME280;11497;52.222;21.246;2023-02-26T04:54:00;99432.16;;;0.76;79.39
22662;BME280;11497;52.222;21.246;2023-02-26T04:56:28;99431.47;;;0.56;79.33
22662;BME280;11497;52.222;21.246;2023-02-26T04:58:56;99445.19;;;0.53;79.82
22662;BME280;11497;52.222;21.246;2023-02-26T05:01:28;99449.34;;;0.71;79.90
22662;BME280;11497;52.222;21.246;2023-02-26T05:03:58;99448.56;;;0.63;80.39
22662;BME280;11497;52.222;21.246;2023-02-26T05:06:25;99451.03;;;0.78;79.29
22662;BME280;11497;52.222;21.246;2023-02-26T05:08:54;99459.78;;;0.56;80.06
22662;BME280;11497;52.222;21.246;2023-02-26T05:11:22;99457.03;;;0.77;79.87
22662;BME280;11497;52.222;21.246;2023-02-26T05:13:50;99455.31;;;0.78;79.83
22662;BME280;11497;52.222;21.246;2023-02-26T05:16:17;99465.69;;;0.70;79.52
22662;BME280;11497;52.222;21.246;2023-02-26T05:18:46;99472.56;;;0.66;79.54
22662;BME280;11497;52.222;21.246;2023-02-26T05:21:13;99464.88;;;0.62;80.14
22662;BME280;11497;52.222;21.246;2023-02-26T05:23:42;99473.50;;;0.56;80.00
22662;BME280;11497;52.222;21.246;2023-02-26T05:26:10;99479.41;;;0.71;79.76
22662;BME280;11497;52.222;21.246;2023-02-26T05:28:38;99481.25;;;0.55;79.52
22662;BME280;11497;52.222;21.246;2023-02-26T05:31:06;99487.16;;;0.66;79.73
22662;BME280;11497;52.222;21.246;2023-02-26T05:33:35;99490.63;;;0.62;79.71
22662;BME280;11497;52.222;21.246;2023-02-26T05:36:03;99497.50;;;0.60;79.70
22662;BME280;11497;52.222;21.246;2023-02-26T05:38:31;99501.69;;;0.76;79.19
22662;BME280;11497;52.222;21.246;2023-02-26T05:40:59;99495.84;;;0.50;79.23
22662;BME280;11497;52.222;21.246;2023-02-26T05:43:28;99521.63;;;0.44;79.84
22662;BME280;11497;52.222;21.246;2023-02-26T05:45:56;99524.13;;;0.59;79.84
22662;BME280;11497;52.222;21.246;2023-02-26T05:48:24;99529.34;;;0.48;79.70
22662;BME280;11497;52.222;21.246;2023-02-26T05:50:52;99528.50;;;0.45;80.47
22662;BME280;11497;52.222;21.246;2023-02-26T05:53:20;99535.34;;;0.46;80.84
22662;BME280;11497;52.222;21.246;2023-02-26T05:55:48;99544.78;;;0.50;80.76
22662;BME280;11497;52.222;21.246;2023-02-26T05:58:17;99553.38;;;0.44;80.88
22662;BME280;11497;52.222;21.246;2023-02-26T06:00:45;99555.91;;;0.52;81.43
22662;BME280;11497;52.222;21.246;2023-02-26T06:03:13;99569.69;;;0.45;81.51
22662;BME280;11497;52.222;21.246;2023-02-26T06:05:41;99558.59;;;0.38;81.65
22662;BME280;11497;52.222;21.246;2023-02-26T06:08:09;99564.59;;;0.39;82.11
22662;BME280;11497;52.222;21.246;2023-02-26T06:10:38;99575.66;;;0.50;82.58
22662;BME280;11497;52.222;21.246;2023-02-26T06:13:06;99576.53;;;0.49;82.62
22662;BME280;11497;52.222;21.246;2023-02-26T06:15:34;99585.13;;;0.46;82.66
22662;BME280;11497;52.222;21.246;2023-02-26T06:18:02;99589.38;;;0.53;82.39
22662;BME280;11497;52.222;21.246;2023-02-26T06:20:30;99594.63;;;0.41;82.66
22662;BME280;11497;52.222;21.246;2023-02-26T06:22:58;99597.22;;;0.30;82.68
22662;BME280;11497;52.222;21.246;2023-02-26T06:25:25;99600.63;;;0.42;83.34
22662;BME280;11497;52.222;21.246;2023-02-26T06:27:53;99604.06;;;0.41;82.33
22662;BME280;11497;52.222;21.246;2023-02-26T06:30:21;99610.91;;;0.43;81.93
22662;BME280;11497;52.222;21.246;2023-02-26T06:32:50;99613.53;;;0.32;81.12
22662;BME280;11497;52.222;21.246;2023-02-26T06:35:18;99623.84;;;0.26;80.40
22662;BME280;11497;52.222;21.246;2023-02-26T06:37:46;99634.13;;;0.31;79.26
22662;BME280;11497;52.222;21.246;2023-02-26T06:40:14;99638.47;;;0.12;79.30
22662;BME280;11497;52.222;21.246;2023-02-26T06:42:42;99641.00;;;0.23;79.00
22662;BME280;11497;52.222;21.246;2023-02-26T06:45:10;99648.69;;;0.33;77.59
22662;BME280;11497;52.222;21.246;2023-02-26T06:47:38;99649.56;;;0.34;76.50
22662;BME280;11497;52.222;21.246;2023-02-26T06:50:06;99656.44;;;0.29;77.11
22662;BME280;11497;52.222;21.246;2023-02-26T06:52:35;99663.31;;;0.24;76.77
22662;BME280;11497;52.222;21.246;2023-02-26T06:55:03;99670.19;;;0.14;76.51
22662;BME280;11497;52.222;21.246;2023-02-26T06:57:31;99676.09;;;0.44;76.04
22662;BME280;11497;52.222;21.246;2023-02-26T06:59:59;99689.84;;;0.40;74.60
22662;BME280;11497;52.222;21.246;2023-02-26T07:02:28;99685.56;;;0.37;74.19
22662;BME280;11497;52.222;21.246;2023-02-26T07:04:56;99701.88;;;0.38;74.34
22662;BME280;11497;52.222;21.246;2023-02-26T07:07:24;99713.88;;;0.42;73.87
22662;BME280;11497;52.222;21.246;2023-02-26T07:09:52;99706.97;;;0.47;73.19
22662;BME280;11497;52.222;21.246;2023-02-26T07:12:20;99708.69;;;0.45;73.72
22662;BME280;11497;52.222;21.246;2023-02-26T07:14:47;99709.53;;;0.48;73.91
22662;BME280;11497;52.222;21.246;2023-02-26T07:17:15;99713.78;;;0.60;73.40
22662;BME280;11497;52.222;21.246;2023-02-26T07:19:51;99717.19;;;0.71;72.48
22662;BME280;11497;52.222;21.246;2023-02-26T07:22:19;99724.09;;;0.57;71.97
22662;BME280;11497;52.222;21.246;2023-02-26T07:24:49;99724.94;;;0.63;71.48
22662;BME280;11497;52.222;21.246;2023-02-26T07:27:18;99727.47;;;0.73;71.08
22662;BME280;11497;52.222;21.246;2023-02-26T07:29:46;99725.66;;;0.93;70.07
22662;BME280;11497;52.222;21.246;2023-02-26T07:32:13;99730.75;;;1.07;69.07
22662;BME280;11497;52.222;21.246;2023-02-26T07:34:41;99735.91;;;1.04;68.87
22662;BME280;11497;52.222;21.246;2023-02-26T07:37:09;99750.53;;;0.97;68.13
22662;BME280;11497;52.222;21.246;2023-02-26T07:39:37;99755.59;;;1.15;68.14
22662;BME280;11497;52.222;21.246;2023-02-26T07:42:05;99760.75;;;1.17;67.04
22662;BME280;11497;52.222;21.246;2023-02-26T07:44:33;99766.75;;;1.20;66.93
22662;BME280;11497;52.222;21.246;2023-02-26T07:47:01;99768.44;;;1.29;66.11
22662;BME280;11497;52.222;21.246;2023-02-26T07:49:29;99770.09;;;1.31;65.40
22662;BME280;11497;52.222;21.246;2023-02-26T07:51:57;99777.09;;;1.13;65.10
22662;BME280;11497;52.222;21.246;2023-02-26T07:54:25;99767.63;;;1.15;64.74
22662;BME280;11497;52.222;21.246;2023-02-26T07:56:53;99781.16;;;1.50;64.46
22662;BME280;11497;52.222;21.246;2023-02-26T07:59:21;99778.56;;;1.56;64.64
22662;BME280;11497;52.222;21.246;2023-02-26T08:01:49;99785.63;;;1.27;63.93
22662;BME280;11497;52.222;21.246;2023-02-26T08:04:17;99788.94;;;1.41;64.10
22662;BME280;11497;52.222;21.246;2023-02-26T08:06:45;99791.53;;;1.43;63.85
22662;BME280;11497;52.222;21.246;2023-02-26T08:09:12;99793.19;;;1.54;63.50
22662;BME280;11497;52.222;21.246;2023-02-26T08:11:40;99799.19;;;1.56;63.60
22662;BME280;11497;52.222;21.246;2023-02-26T08:14:10;99811.16;;;1.70;62.56
22662;BME280;11497;52.222;21.246;2023-02-26T08:16:39;99803.28;;;1.83;61.96
22662;BME280;11497;52.222;21.246;2023-02-26T08:19:07;99821.34;;;1.85;61.06
22662;BME280;11497;52.222;21.246;2023-02-26T08:21:35;99816.06;;;2.00;60.83
22662;BME280;11497;52.222;21.246;2023-02-26T08:24:03;99820.19;;;2.21;61.12
22662;BME280;11497;52.222;21.246;2023-02-26T08:26:34;99815.91;;;2.18;60.64
22662;BME280;11497;52.222;21.246;2023-02-26T08:29:02;99829.75;;;2.11;60.65
22662;BME280;11497;52.222;21.246;2023-02-26T08:31:30;99830.50;;;2.21;60.57
22662;BME280;11497;52.222;21.246;2023-02-26T08:33:58;99827.75;;;2.44;59.82
22662;BME280;11497;52.222;21.246;2023-02-26T08:36:26;99839.78;;;2.45;59.52
22662;BME280;11497;52.222;21.246;2023-02-26T08:38:55;99846.78;;;2.30;60.33
22662;BME280;11497;52.222;21.246;2023-02-26T08:41:23;99852.88;;;2.23;59.55
22662;BME280;11497;52.222;21.246;2023-02-26T08:43:51;99848.69;;;2.10;59.81
22662;BME280;11497;52.222;21.246;2023-02-26T08:46:20;99860.63;;;2.22;59.82
22662;BME280;11497;52.222;21.246;2023-02-26T08:48:47;99865.97;;;1.99;59.59
22662;BME280;11497;52.222;21.246;2023-02-26T08:51:15;99872.84;;;2.00;59.80
22662;BME280;11497;52.222;21.246;2023-02-26T08:53:43;99878.84;;;2.05;59.79
22662;BME280;11497;52.222;21.246;2023-02-26T08:56:13;99879.69;;;2.06;59.90
22662;BME280;11497;52.222;21.246;2023-02-26T08:58:41;99891.78;;;1.97;59.69
22662;BME280;11497;52.222;21.246;2023-02-26T09:01:09;99900.47;;;1.86;59.93
22662;BME280;11497;52.222;21.246;2023-02-26T09:03:37;99903.94;;;1.76;60.25
22662;BME280;11497;52.222;21.246;2023-02-26T09:06:05;99918.56;;;1.74;60.78
22662;BME280;11497;52.222;21.246;2023-02-26T09:08:33;99928.84;;;1.83;61.56
22662;BME280;11497;52.222;21.246;2023-02-26T09:11:02;99938.41;;;1.65;61.29
22662;BME280;11497;52.222;21.246;2023-02-26T09:13:30;99929.03;;;1.48;60.61
22662;BME280;11497;52.222;21.246;2023-02-26T09:15:58;99935.88;;;1.52;61.23
22662;BME280;11497;52.222;21.246;2023-02-26T09:18:26;99937.66;;;1.38;60.59
22662;BME280;11497;52.222;21.246;2023-02-26T09:20:54;99938.50;;;1.41;61.01
22662;BME280;11497;52.222;21.246;2023-02-26T09:23:22;99940.19;;;1.48;60.74
22662;BME280;11497;52.222;21.246;2023-02-26T09:25:54;99944.41;;;1.71;60.01
22662;BME280;11497;52.222;21.246;2023-02-26T09:28:23;99950.44;;;1.73;60.20
22662;BME280;11497;52.222;21.246;2023-02-26T09:30:53;99955.47;;;1.91;60.39
22662;BME280;11497;52.222;21.246;2023-02-26T09:33:22;99952.84;;;2.03;59.09
22662;BME280;11497;52.222;21.246;2023-02-26T09:35:51;99964.22;;;1.59;58.71
22662;BME280;11497;52.222;21.246;2023-02-26T09:38:19;99962.50;;;1.63;59.36
22662;BME280;11497;52.222;21.246;2023-02-26T09:41:02;99979.69;;;1.69;60.06
22662;BME280;11497;52.222;21.246;2023-02-26T09:47:37;99977.97;;;1.67;60.45
22662;BME280;11497;52.222;21.246;2023-02-26T09:49:41;99991.63;;;1.82;61.06
22662;BME280;11497;52.222;21.246;2023-02-26T09:55:16;99998.63;;;1.61;62.14
22662;BME280;11497;52.222;21.246;2023-02-26T09:57:50;99991.66;;;1.76;60.99
22662;BME280;11497;52.222;21.246;2023-02-26T10:01:09;99992.53;;;1.75;61.03
22662;BME280;11497;52.222;21.246;2023-02-26T10:11:25;100017.50;;;1.73;61.86
22662;BME280;11497;52.222;21.246;2023-02-26T10:14:08;100024.41;;;1.67;61.78
22662;BME280;11497;52.222;21.246;2023-02-26T10:16:42;100025.25;;;1.70;61.59
22662;BME280;11497;52.222;21.246;2023-02-26T10:19:18;100032.03;;;1.89;62.07
22662;BME280;11497;52.222;21.246;2023-02-26T10:25:01;100029.50;;;1.74;62.50
22662;BME280;11497;52.222;21.246;2023-02-26T10:27:54;100032.91;;;1.85;62.97
22662;BME280;11497;52.222;21.246;2023-02-26T10:30:41;100026.06;;;1.75;62.91
22662;BME280;11497;52.222;21.246;2023-02-26T10:38:43;100051.06;;;1.53;62.81
22662;BME280;11497;52.222;21.246;2023-02-26T10:41:19;100054.50;;;1.58;63.35
22662;BME280;11497;52.222;21.246;2023-02-26T10:44:29;100062.22;;;1.65;64.06
22662;BME280;11497;52.222;21.246;2023-02-26T10:47:10;100057.06;;;1.65;63.61
22662;BME280;11497;52.222;21.246;2023-02-26T10:49:54;100069.09;;;1.73;63.86
22662;BME280;11497;52.222;21.246;2023-02-26T10:52:25;100069.06;;;1.77;63.67
22662;BME280;11497;52.222;21.246;2023-02-26T10:57:30;100077.63;;;1.87;62.30
22662;BME280;11497;52.222;21.246;2023-02-26T11:00:02;100087.97;;;1.75;62.42
22662;BME280;11497;52.222;21.246;2023-02-26T11:02:40;100061.41;;;1.44;62.05
22662;BME280;11497;52.222;21.246;2023-02-26T11:05:35;100096.63;;;1.55;61.58
22662;BME280;11497;52.222;21.246;2023-02-26T11:08:14;100099.22;;;1.49;62.14
22662;BME280;11497;52.222;21.246;2023-02-26T11:10:51;100097.47;;;1.71;62.37
22662;BME280;11497;52.222;21.246;2023-02-26T11:13:24;100099.19;;;1.67;61.84
22662;BME280;11497;52.222;21.246;2023-02-26T11:15:55;100102.66;;;1.57;61.89
22662;BME280;11497;52.222;21.246;2023-02-26T11:21:12;100101.78;;;1.71;62.62
22662;BME280;11497;52.222;21.246;2023-02-26T11:23:45;100110.31;;;1.94;62.24
22662;BME280;11497;52.222;21.246;2023-02-26T11:26:16;100108.59;;;1.90;61.68
22662;BME280;11497;52.222;21.246;2023-02-26T11:28:48;100105.13;;;1.97;60.48
22662;BME280;11497;52.222;21.246;2023-02-26T11:31:20;100104.28;;;1.93;60.98
22662;BME280;11497;52.222;21.246;2023-02-26T11:36:20;100119.72;;;2.09;61.24
22662;BME280;11497;52.222;21.246;2023-02-26T11:39:36;100119.75;;;2.01;60.21
22662;BME280;11497;52.222;21.246;2023-02-26T11:41:46;100121.41;;;2.19;57.98
22662;BME280;11497;52.222;21.246;2023-02-26T11:44:37;100129.97;;;2.30;58.19
22662;BME280;11497;52.222;21.246;2023-02-26T11:47:14;100134.09;;;2.63;57.94
22662;BME280;11497;52.222;21.246;2023-02-26T11:49:54;100134.06;;;2.72;57.26
22662;BME280;11497;52.222;21.246;2023-02-26T11:52:33;100143.53;;;2.72;56.87
22662;BME280;11497;52.222;21.246;2023-02-26T11:55:15;100151.16;;;2.97;56.15
22662;BME280;11497;52.222;21.246;2023-02-26T11:57:43;100152.72;;;3.17;55.21
22662;BME280;11497;52.222;21.246;2023-02-26T12:00:22;100154.66;;;2.84;53.99
22662;BME280;11497;52.222;21.246;2023-02-26T12:02:53;100156.38;;;2.88;54.00
22662;BME280;11497;52.222;21.246;2023-02-26T12:05:23;100165.03;;;2.78;54.25
22662;BME280;11497;52.222;21.246;2023-02-26T12:07:51;100165.19;;;2.51;54.50
22662;BME280;11497;52.222;21.246;2023-02-26T12:10:34;100174.63;;;2.59;53.55
22662;BME280;11497;52.222;21.246;2023-02-26T12:13:14;100179.84;;;2.47;53.98
22662;BME280;11497;52.222;21.246;2023-02-26T12:40:50;100204.84;;;2.34;55.09
22662;BME280;11497;52.222;21.246;2023-02-26T12:43:51;100210.03;;;2.18;55.29
22662;BME280;11497;52.222;21.246;2023-02-26T12:52:09;100222.94;;;2.19;57.23
22662;BME280;11497;52.222;21.246;2023-02-26T12:54:59;100231.53;;;2.33;57.11
22662;BME280;11497;52.222;21.246;2023-02-26T13:14:14;100234.84;;;2.67;56.66
22662;BME280;11497;52.222;21.246;2023-02-26T13:22:34;100244.34;;;2.61;55.91
22662;BME280;11497;52.222;21.246;2023-02-26T13:27:47;100251.28;;;2.56;55.61
22662;BME280;11497;52.222;21.246;2023-02-26T13:30:50;100260.78;;;2.39;56.26
22662;BME280;11497;52.222;21.246;2023-02-26T13:33:26;100261.66;;;2.30;56.87
22662;BME280;11497;52.222;21.246;2023-02-26T13:35:56;100265.09;;;2.46;56.14
22662;BME280;11497;52.222;21.246;2023-02-26T13:41:05;100269.38;;;2.48;56.66
22662;BME280;11497;52.222;21.246;2023-02-26T13:51:57;100276.09;;;2.96;54.43
22662;BME280;11497;52.222;21.246;2023-02-26T13:54:45;100272.66;;;2.99;53.28
22662;BME280;11497;52.222;21.246;2023-02-26T13:57:35;100261.50;;;2.80;53.47
22662;BME280;11497;52.222;21.246;2023-02-26T14:02:46;100286.47;;;2.89;52.45
22662;BME280;11497;52.222;21.246;2023-02-26T14:06:06;100283.88;;;2.87;52.46
22662;BME280;11497;52.222;21.246;2023-02-26T14:14:10;100293.38;;;2.87;51.65
22662;BME280;11497;52.222;21.246;2023-02-26T14:16:41;100292.53;;;2.79;51.77
22662;BME280;11497;52.222;21.246;2023-02-26T14:19:19;100296.81;;;2.83;52.39
22662;BME280;11497;52.222;21.246;2023-02-26T14:21:52;100294.25;;;2.81;51.59
22662;BME280;11497;52.222;21.246;2023-02-26T14:24:38;100302.88;;;2.74;51.22
22662;BME280;11497;52.222;21.246;2023-02-26T14:29:52;100303.72;;;2.79;51.74
22662;BME280;11497;52.222;21.246;2023-02-26T14:35:31;100308.06;;;2.66;51.92
22662;BME280;11497;52.222;21.246;2023-02-26T14:38:26;100294.34;;;2.57;51.58
22662;BME280;11497;52.222;21.246;2023-02-26T14:46:39;100318.44;;;2.59;51.57
22662;BME280;11497;52.222;21.246;2023-02-26T14:49:24;100330.47;;;2.66;51.68
22662;BME280;11497;52.222;21.246;2023-02-26T14:52:17;100325.34;;;2.42;51.92
22662;BME280;11497;52.222;21.246;2023-02-26T14:58:17;100340.84;;;2.20;53.22
22662;BME280;11497;52.222;21.246;2023-02-26T15:00:54;100337.41;;;2.33;53.94
22662;BME280;11497;52.222;21.246;2023-02-26T15:03:42;100340.00;;;2.32;53.60
22662;BME280;11497;52.222;21.246;2023-02-26T15:09:02;100347.75;;;2.33;52.72
22662;BME280;11497;52.222;21.246;2023-02-26T15:17:36;100363.22;;;2.30;53.84
22662;BME280;11497;52.222;21.246;2023-02-26T15:25:43;100375.28;;;2.28;54.08
22662;BME280;11497;52.222;21.246;2023-02-26T15:28:35;100375.28;;;1.95;53.88
22662;BME280;11497;52.222;21.246;2023-02-26T15:31:06;100380.38;;;1.77;55.18
22662;BME280;11497;52.222;21.246;2023-02-26T15:33:35;100366.56;;;1.47;55.09
22662;BME280;11497;52.222;21.246;2023-02-26T15:36:07;100381.16;;;1.44;55.48
22662;BME280;11497;52.222;21.246;2023-02-26T15:39:04;100390.66;;;1.55;55.67
22662;BME280;11497;52.222;21.246;2023-02-26T15:41:31;100388.94;;;1.54;56.02
22662;BME280;11497;52.222;21.246;2023-02-26T15:44:04;100395.75;;;1.34;56.18
22662;BME280;11497;52.222;21.246;2023-02-26T15:46:40;100394.88;;;1.26;56.30
22662;BME280;11497;52.222;21.246;2023-02-26T15:49:26;100402.56;;;1.17;56.35
22662;BME280;11497;52.222;21.246;2023-02-26T15:51:56;100399.78;;;0.82;56.59
22662;BME280;11497;52.222;21.246;2023-02-26T15:54:43;100407.28;;;0.53;57.50
22662;BME280;11497;52.222;21.246;2023-02-26T15:57:12;100414.94;;;0.41;58.19
22662;BME280;11497;52.222;21.246;2023-02-26T15:59:47;100416.47;;;0.19;58.50
22662;BME280;11497;52.222;21.246;2023-02-26T16:02:18;100413.78;;;0.08;59.04
22662;BME280;11497;52.222;21.246;2023-02-26T16:04:46;100430.88;;;0.00;59.54
22662;BME280;11497;52.222;21.246;2023-02-26T16:07:14;100426.56;;;-0.04;59.87
22662;BME280;11497;52.222;21.246;2023-02-26T16:09:46;100431.63;;;-0.10;60.35
22662;BME280;11497;52.222;21.246;2023-02-26T16:15:00;100434.06;;;-0.22;61.20
22662;BME280;11497;52.222;21.246;2023-02-26T16:17:33;100445.06;;;-0.34;61.53
22662;BME280;11497;52.222;21.246;2023-02-26T16:20:04;100455.31;;;-0.37;62.15
22662;BME280;11497;52.222;21.246;2023-02-26T16:23:14;100452.84;;;-0.29;63.03
22662;BME280;11497;52.222;21.246;2023-02-26T16:25:40;100454.28;;;-0.53;64.33
22662;BME280;11497;52.222;21.246;2023-02-26T16:28:33;100461.34;;;-0.35;64.89
22662;BME280;11497;52.222;21.246;2023-02-26T16:31:05;100462.75;;;-0.60;65.88
22662;BME280;11497;52.222;21.246;2023-02-26T16:33:37;100458.19;;;-0.81;66.51
22662;BME280;11497;52.222;21.246;2023-02-26T16:36:12;100467.50;;;-0.90;67.63
22662;BME280;11497;52.222;21.246;2023-02-26T16:41:33;100480.38;;;-0.89;68.52